D/T METAR WX W/DIR W/SPE G/SPE TEMP DEWP
23/03/19 12:50 EGPU 231250Z 28020KT 9999 SHRA FEW010 SCT018 08/02 Q1031 SHRA W (280°) 23.0mph 8°C 2°C
23/03/19 11:50 EGPU 231150Z 2701KT 9999 VCSH FEW011 SCT020 08/02 Q1030 VCSH N (0°) 8°C 2°C
23/03/19 11:20 EGPU 231120Z 27017KT 9999 SHRA SCT012 SCT021 06/02 Q1030 SHRA W (270°) 19.6mph 6°C 2°C
23/03/19 10:50 EGPU 231050Z 30012KT 9999 VCSH FEW010 SCT021 08/01 Q1030 VCSH WNW (300°) 13.8mph 8°C 1°C
23/03/19 10:20 EGPU 231020Z 28013KT 9999 FEW010 SCT021 08/01 Q1030 W (280°) 15.0mph 8°C 1°C
23/03/19 09:50 EGPU 230950Z 28012KT 9999 FEW010 07/02 Q1029 W (280°) 13.8mph 7°C 2°C
23/03/19 09:20 EGPU 230920Z 27012KT 9999 VCSH FEW010 SCT020 06/01 Q1029 VCSH W (270°) 13.8mph 6°C 1°C
22/03/19 16:50 EGPU 221650Z 26031 9999 FEW012 08/04 Q1017 W (260°) 35.7mph 8°C 4°C
22/03/19 15:50 EGPU 221550Z 25026KT 9999 VCSH SCT025 09/01 Q1016 VCSH WSW (250°) 29.9mph 9°C 1°C
22/03/19 15:20 EGPU 221520Z 25023KT 9999 FEW025 10/02 Q1016 WSW (250°) 26.5mph 10°C 2°C
22/03/19 14:20 EGPU 221420Z 25026KT 9999 FEW025 10/04 Q1015 WSW (250°) 29.9mph 10°C 4°C
22/03/19 13:50 EGPU 221350Z 25024KT 9999 SCT025 10/04 Q1015 WSW (250°) 27.6mph 10°C 4°C
22/03/19 13:20 EGPU 221320Z 25021KTG31KT 9999SCT025 10/04 Q1015 N (0°) 10°C 4°C
22/03/19 12:20 EGPU 221220Z 25027KT 9999 SCT025 10/04 Q1014 WSW (250°) 31.1mph 10°C 4°C
22/03/19 11:50 EGPU 221150Z 26024KT FEW010 SCT025 10/06 Q1014 W (260°) 27.6mph 10°C 6°C
22/03/19 11:20 EGPU 221120Z 25020KT 9999 FEW007 SCT025 09/08 Q1014 WSW (250°) 23.0mph 9°C 8°C
22/03/19 10:20 EGPU 221020Z 8000 23018KT BKN1500 09/08 Q1013 SW (230°) 20.7mph 9°C 8°C
22/03/19 09:50 EGPU 220950Z 23020KT 8000 -RA BKN006 09/08 Q1012 -RA SW (230°) 23.0mph 9°C 8°C
22/03/19 09:20 EGPU 220920Z 23020KT 8000 RA BKN006 09/08 Q1012 RA SW (230°) 23.0mph 9°C 8°C
22/03/19 08:50 EGPU 220850Z 22031KT 7000 RA BKN005 09/08 Q1012 RA SW (220°) 35.7mph 9°C 8°C
21/03/19 16:50 EGPU 211650Z 17012KT 800 FG VV/// 09/09 Q1025 FG S (170°) 13.8mph 9°C 9°C
21/03/19 16:20 EGPU 211620Z 16012KT 1000 FG VCSH 09/09 Q1025 FG VCSH SSE (160°) 13.8mph 9°C 9°C
21/03/19 15:50 EGPU 211550Z 17008KT 1000 FG VV/// 09/09 Q1026 FG S (170°) 9.2mph 9°C 9°C
21/03/19 15:20 EGPU 211520Z 17009KT 1900 FG BKN004 09/09 Q1026 FG S (170°) 10.4mph 9°C 9°C
21/03/19 14:50 EGPU 211450Z 18007KT 5000 BR BKN004 10/09 1027 BR S (180°) 8.1mph 10°C 9°C
21/03/19 13:50 EGPU 211350Z 19006KT 9999 FEW004 SCT015 10/09 Q1028 S (190°) 6.9mph 10°C 9°C
21/03/19 12:20 EGPU 211220Z 20006KT 9000 VCFG FEW003 BKN005 10/09 Q1028 VCFG SSW (200°) 6.9mph 10°C 9°C
21/03/19 11:50 EGPU 211150Z 20004KT 9999 VCFG BKN004 10/09 Q1027 VCFG SSW (200°) 4.6mph 10°C 9°C
21/03/19 09:50 EGPU 210950Z 29003KT 5000 VCFG BKN400 09/09 Q1027 VCFG WNW (290°) 3.5mph 9°C 9°C
21/03/19 09:20 EGPU 210920Z 30006KT 5000 VCFG BKN003 09/09 Q1027 VCFG WNW (300°) 6.9mph 9°C 9°C
21/03/19 08:50 EGPU 210850Z 28008KT 9000 SCT003 BKN005 09/09 Q1027 W (280°) 9.2mph 9°C 9°C
20/03/19 17:50 EGPU 201750Z 23022KT 9000 OVC006 10/09 Q1021 SW (230°) 25.3mph 10°C 9°C
20/03/19 16:20 EGPU 201620Z 22025KT 5000 OVC004 11/10 Q1020 SW (220°) 28.8mph 11°C 10°C
20/03/19 15:50 EGPU 201550Z 22021KT 4500 DZ BR OVC004 11/10 Q1021 DZ BR SW (220°) 24.2mph 11°C 10°C
20/03/19 14:50 EGPU 201450Z 22024KT 9000 OVC005 11/10 Q1021 SW (220°) 27.6mph 11°C 10°C
20/03/19 13:50 EGPU 201350Z 21023KT 9999 OVC004 11/10 Q1022 SSW (210°) 26.5mph 11°C 10°C
20/03/19 12:50 EGPU 201250Z 20020KT 9999 OVC 003 10/10 Q1023 SSW (200°) 23.0mph 10°C 10°C
20/03/19 12:20 EGPU 201220Z 21021KT 2100 FGVC OVC004 10/10 Q1023 FG SSW (210°) 24.2mph 10°C 10°C
20/03/19 11:50 EGPU 201150Z 21018KT 0500 VV/// 10/10 Q1023 SSW (210°) 20.7mph 10°C 10°C
20/03/19 11:20 EGPU 201120Z 20017KT 500 BR OVC400 10/10 Q1023 BR SSW (200°) 19.6mph 10°C 10°C
20/03/19 10:20 EGPU 201020Z 20013KT 400 BR OVC004 10/09 Q1023 BR SSW (200°) 15.0mph 10°C 9°C
20/03/19 09:50 EGPU 200950Z 20012KT 1500 BR OVC400 10/10 Q1023 BR SSW (200°) 13.8mph 10°C 10°C
20/03/19 09:20 EGPU 200920Z 22015KT 9999 FEW005 SCT020 10/10 Q1024 SW (220°) 17.3mph 10°C 10°C
20/03/19 08:50 EGPU 200850Z 22013KT 9999 FEW006 SCT020 10/09 Q1024 SW (220°) 15.0mph 10°C 9°C
19/03/19 17:50 EGPU 191750Z 25016KT 9000 FEW004 FEW010 10/09 Q1020 WSW (250°) 18.4mph 10°C 9°C
19/03/19 16:50 EGPU 191650Z 25016KT 9999 SCT040 BKN010 10/09 Q1020 WSW (250°) 18.4mph 10°C 9°C
19/03/19 08:50 EGPU 190850Z 20019KT 1500 BR OVC003 08/08 Q1017 BR SSW (200°) 21.9mph 8°C 8°C
18/03/19 18:20 EGPU 181820Z 27006KT 9999 FEW010 08/06 Q1018 W (270°) 6.9mph 8°C 6°C
18/03/19 17:50 EGPU 181750Z 9999 FEW010 09/07 Q1018 N (0°) 9°C 7°C
18/03/19 17:20 EGPU 181720Z 29008KT 9999 FEW010 09/07 Q1016 WNW (290°) 9.2mph 9°C 7°C
18/03/19 16:50 EGPU 181650Z 29010KT 9999 FEW012 10/07 Q1016 WNW (290°) 11.5mph 10°C 7°C
18/03/19 14:50 EGPU 181450Z 29010KT 9999 FEW010 10/07 Q1016 WNW (290°) 11.5mph 10°C 7°C
18/03/19 12:20 EGPU 181220Z 29011KT 9999 FEW008 09/07 Q1014 WNW (290°) 12.7mph 9°C 7°C
18/03/19 10:20 EGPU 181020Z 24006KT 8000 FEW004 SCT008 BKN012 09/08 Q1013 WSW (240°) 6.9mph 9°C 8°C
18/03/19 09:50 EGPU 180950Z 19006KT 7000 -DZ SCT004 BKN006 08/07 Q1013 -DZ S (190°) 6.9mph 8°C 7°C
17/03/19 14:50 EGPU 171450Z 34020KT 9999 SCT018 FEW024CB 08/03 Q1007 NNW (340°) 23.0mph 8°C 3°C
17/03/19 14:20 EGPU 171420Z 34016KT 999 SCT018 FEW024CB 08/04 Q1006 NNW (340°) 18.4mph 8°C 4°C
16/03/19 13:20 EGPU 161320Z 01016KT 9999 FEW007 BKN010 05/03 Q0986 N (10°) 18.4mph 5°C 3°C
16/03/19 11:50 EGPU 161150Z 04012KT 9999 FEW004 BKN008 03/02 Q0986 NE (40°) 13.8mph 3°C 2°C
16/03/19 10:20 EGPU 161020Z 05013KT 9999 FEW004 BKN008 03/02 Q0987 NE (50°) 15.0mph 3°C 2°C
16/03/19 09:20 EGPU 160920Z 13013KT 9999 FEW004 BKN008 03/02 Q0987 SE (130°) 15.0mph 3°C 2°C
9/03/19 17:50 EGPU 091750Z 28017KT 9999 VCSH SCT025CB 05/M00 Q1005 VCSH W (280°) 19.6mph 5°C 0°C
9/03/19 16:50 EGPU 091650Z 29017KT 9999 VCSH BKN029CB 06/02 Q1005 VCSH WNW (290°) 19.6mph 6°C 2°C
9/03/19 15:50 EGPU 091550Z 27017KT 9999 SCT030CB 05/01 Q1005 W (270°) 19.6mph 5°C 1°C
9/03/19 14:50 EGPU 091450Z 27022KT 9999 SCT029 06/01 Q1005 W (270°) 25.3mph 6°C 1°C
9/03/19 13:50 EGPU 091350Z 27021KT 9999 SCT030 06/02 Q1005 W (270°) 24.2mph 6°C 2°C
9/03/19 12:50 EGPU 091250Z 27020KT 9999 SCT026 06/02 Q1004 W (270°) 23.0mph 6°C 2°C
9/03/19 10:50 EGPU 091050Z 29022KT 9999 VCSH FEW010 BKN032 07/00 Q1002 VCSH WNW (290°) 25.3mph 7°C 0°C
9/03/19 09:50 EGPU 090950Z 30020KT 9999 FEW008 SCT020 07/00 Q1001 WNW (300°) 23.0mph 7°C 0°C
8/03/19 17:50 EGPU 081750Z 28034KT 9000 SHRA BKN010 08/03 Q0993 SHRA W (280°) 39.1mph 8°C 3°C
8/03/19 16:50 EGPU 081650Z 29019KT 9000 VCSH FEW008 BKN016 08/04 Q0992 VCSH WNW (290°) 21.9mph 8°C 4°C
8/03/19 15:50 EGPU 081550Z 28025KT 9000 -RA BKN008 08/05 Q0992 -RA W (280°) 28.8mph 8°C 5°C
8/03/19 14:50 EGPU 081450Z 19024KT 3700 RADZ BR OVC003 07/07 Q0992 RA DZ BR S (190°) 27.6mph 7°C 7°C
8/03/19 13:50 EGPU 081350Z 20025KT 7000 -RADZ BKN005 07/06 Q0994 -RA -DZ SSW (200°) 28.8mph 7°C 6°C
8/03/19 12:50 EGPU 081250Z 20026KT 5000 RADZ BKN007 07/06 Q0995 RA DZ SSW (200°) 29.9mph 7°C 6°C
8/03/19 11:50 EGPU 081150Z 21021KT 9000 -RA BKN008 06/05 Q0996 -RA SSW (210°) 24.2mph 6°C 5°C
8/03/19 10:50 EGPU 081050Z 21022KT 9000 -RA BKN008 06/04 Q0998 -RA SSW (210°) 25.3mph 6°C 4°C
8/03/19 09:50 EGPU 080950Z 21018KT 9000 RA BKN008 05/04 Q0999 RA SSW (210°) 20.7mph 5°C 4°C
8/03/19 08:50 EGPU 080850Z 22010KT 9000 -RA BKN008 05/03 Q1000 -RA SW (220°) 11.5mph 5°C 3°C
7/03/19 17:50 EGPU 071750Z 01018KT 9999 FEW012 SCT020 07/02 Q0999 N (10°) 20.7mph 7°C 2°C
7/03/19 16:50 EGPU 071650Z 36020KT 9999 VCSH FEW012 SCT020CB 07/02 Q0998 VCSH N (360°) 23.0mph 7°C 2°C
7/03/19 15:50 EGPU 071550Z 36020KT 9999 VCSH SCT024 07/03 Q0996 VCSH N (360°) 23.0mph 7°C 3°C
7/03/19 14:50 EGPU 071450Z 36019G30KT 9999 SCT025 07/03 Q0995 N (360°) 21.9mph 34.5mph 7°C 3°C
7/03/19 13:50 EGPU 071350Z 9999 SCT019 07/03 Q0993 N (0°) 7°C 3°C
7/03/19 11:50 EGPU 071150Z 36026KT 9999 VCSH FEW012 SCT025 07/04 Q0990 VCSH N (360°) 29.9mph 7°C 4°C
7/03/19 09:20 EGPU 070920Z 36030KT 9999 FEW015 SCT025 07/04 Q0987 N (360°) 34.5mph 7°C 4°C
7/03/19 08:50 EGPU 070850Z 0850Z 36027KT 9999 VCSH FEW015 SCT022 07/04 Q0986 VCSH N (360°) 31.1mph 7°C 4°C
6/03/19 17:50 EGPU 061750Z 05016KT 5000 -RADZ SCT008 BKN020 06/05 Q0976 -RA -DZ NE (50°) 18.4mph 6°C 5°C
6/03/19 16:50 EGPU 061650Z 05017KT 7000 -RA BKN008 BKN020 06/05 Q0976 -RA NE (50°) 19.6mph 6°C 5°C
6/03/19 15:50 EGPU 061550Z 05018KT 9000 RA SCT008 BKN020 06/04 Q0976 RA NE (50°) 20.7mph 6°C 4°C
6/03/19 14:50 EGPU 061450Z 04023KT 7000 RA BKN008 BKN019 06/05 Q0977 RA NE (40°) 26.5mph 6°C 5°C
6/03/19 13:50 EGPU 061350Z 04024KT 7000 -RA SCT008 BKN020 05/04 Q0978 -RA NE (40°) 27.6mph 5°C 4°C
6/03/19 11:50 EGPU 061150Z 06027KT 7000 RA BKN008 05/03 Q0980 RA ENE (60°) 31.1mph 5°C 3°C
6/03/19 10:50 EGPU 061050Z 06023KT 7000 RA BKN008 04/03 Q0981 RA ENE (60°) 26.5mph 4°C 3°C
6/03/19 09:50 EGPU 060950Z 05017KT 7000 RA BKN010 04/02 Q0982 RA NE (50°) 19.6mph 4°C 2°C
6/03/19 08:50 EGPU 060850Z 06017KT 9999 -RA FEW010 BKN015 05/01 Q0983 -RA ENE (60°) 19.6mph 5°C 1°C
5/03/19 17:50 EGPU 051750Z VRB03KT 9999 BKN032 06/02 Q0993 N (0°) 3.5mph 6°C 2°C
5/03/19 16:50 EGPU 051650Z 16006KT 9999 BKN030 07/02 Q0993 SSE (160°) 6.9mph 7°C 2°C
5/03/19 15:50 EGPU 051550Z 16008KT 9999 BKN030 07/02 Q0993 SSE (160°) 9.2mph 7°C 2°C
5/03/19 14:50 EGPU 051450Z 13008KT 9999 BKN029 08/01 Q0992 SE (130°) 9.2mph 8°C 1°C
5/03/19 13:50 EGPU 051350Z 13007KT 9999 BKN027 08/02 Q0992 SE (130°) 8.1mph 8°C 2°C
5/03/19 12:50 EGPU 051250Z 16009KT 9999 BKN029 07/03 Q0992 SSE (160°) 10.4mph 7°C 3°C
5/03/19 11:50 EGPU 051150Z 16007KT 9999 BKN028 07/02 Q0991 SSE (160°) 8.1mph 7°C 2°C
5/03/19 10:50 EGPU 051050Z 18008KT 9999 BKN029 07/02 Q0991 S (180°) 9.2mph 7°C 2°C
5/03/19 09:50 EGPU 050950Z 17005KT 9999 SCT028 07/03 Q0990 S (170°) 5.8mph 7°C 3°C
5/03/19 09:20 EGPU 050920Z 18006KT 9999 VCSH BKN028 06/04 Q0989 VCSH S (180°) 6.9mph 6°C 4°C
4/03/19 10:20 EGPU 041020Z 29014KT FEW008 FEW020 Q985 WNW (290°) 16.1mph 0°C 0°C
4/03/19 09:50 EGPU 040950Z 29014KT 9999 FEW008 FEW 020 08/05 Q985 WNW (290°) 16.1mph 8°C 5°C
2/03/19 17:50 EGPU 021750Z 21026G39KT 9000 BKN029 BKN042 08/04 Q0983 SSW (210°) 29.9mph 44.9mph 8°C 4°C
2/03/19 17:20 EGPU 021720Z 21028G39KT 9000 BKN037 09/03 Q0984 SSW (210°) 32.2mph 44.9mph 9°C 3°C
2/03/19 16:50 EGPU 021650Z 22025KT 9000 FEW029 SCT034 09/04 Q0984 SW (220°) 28.8mph 9°C 4°C
2/03/19 16:20 EGPU 021620Z 22024KT 9000 SCT029 08/04 Q0984 SW (220°) 27.6mph 8°C 4°C
2/03/19 15:50 EGPU 021550Z 20028G39KT 9000 SCT032 09/05 Q0985 SSW (200°) 32.2mph 44.9mph 9°C 5°C
2/03/19 15:20 EGPU 021520Z 20022G32KT 9000 BKN049 10/08 Q0984 SSW (200°) 25.3mph 36.8mph 10°C 8°C
2/03/19 14:50 EGPU 021450Z 20023G33KT 9000 RA FEW007 SCT009 BKN049 09/08 Q0985 RA SSW (200°) 26.5mph 38.0mph 9°C 8°C
2/03/19 14:20 EGPU 021420Z 17037G50KT 7000 RA BKN007 08/08 Q0985 RA S (170°) 42.6mph 57.5mph 8°C 8°C
2/03/19 13:50 EGPU 021350Z 16033KT 7000 RA BKN008 BKN015 08/08 Q0985 RA SSE (160°) 38.0mph 8°C 8°C
2/03/19 12:50 EGPU 021250Z 15034KT 7000 BKN008 BKN017 07/07 Q0988 SSE (150°) 39.1mph 7°C 7°C
2/03/19 12:20 EGPU 021220Z 15035KT 7000 BKN010 07/06 Q0989 SSE (150°) 40.3mph 7°C 6°C
2/03/19 11:50 EGPU 021150Z 15033KT 5000 SCT013 BKN021 07/06 Q0991 SSE (150°) 38.0mph 7°C 6°C
2/03/19 11:20 EGPU 021120Z 15030KT 5000 FEW012 BKN027 BKN042 07/06 Q0992 SSE (150°) 34.5mph 7°C 6°C
2/03/19 10:50 EGPU 021050Z 15028KT 5000 FEW008 BKN049 07/06 Q0993 SSE (150°) 32.2mph 7°C 6°C
1/03/19 15:20 EGPU 011520Z 14014KT 8000 SCT005 SCT049 09/08 Q1010 SE (140°) 16.1mph 9°C 8°C
1/03/19 14:50 EGPU 011450Z 14015KT 6000 BKN006 09/08 Q1010 SE (140°) 17.3mph 9°C 8°C
1/03/19 14:20 EGPU 011420Z 14015KT 5000 OVC005 09/07 Q1011 SE (140°) 17.3mph 9°C 7°C
1/03/19 13:50 EGPU 011350Z 15014KT 6000 BKN007 SCT009 09/08 Q1011 SSE (150°) 16.1mph 9°C 8°C
1/03/19 13:20 EGPU 011320Z 15014KT 6000 BKN008 09/08 Q1012 SSE (150°) 16.1mph 9°C 8°C
1/03/19 12:50 EGPU 011250Z AUTO 15013KT 7000 FEW006/// OVC012/// 09/08 Q1012 SSE (150°) 15.0mph 9°C 8°C
1/03/19 12:20 EGPU 011220Z AUTO 15013KT 7000 BKN012/// 09/08 Q1012 SSE (150°) 15.0mph 9°C 8°C
1/03/19 11:50 EGPU 011150Z 17012KT 9999 FEW006 BKN011 09/08 Q1013 S (170°) 13.8mph 9°C 8°C
1/03/19 11:20 EGPU 011120Z 16013KT 9999 SCT006 BKN024 09/08 Q1013 SSE (160°) 15.0mph 9°C 8°C
1/03/19 10:50 EGPU 011050Z 16011KT 9999 SCT004 SCT025 09/08 Q1013 SSE (160°) 12.7mph 9°C 8°C
1/03/19 10:20 EGPU 011020Z 18010KT 150V210 9999 FEW009 10/08 Q1013 S (180°) 11.5mph 10°C 8°C
1/03/19 09:50 EGPU 010950Z 19009KT 9999 FEW009 10/08 Q1013 S (190°) 10.4mph 10°C 8°C
1/03/19 09:20 EGPU 010920Z 19006KT 9999 FEW009 09/08 Q1013 S (190°) 6.9mph 9°C 8°C
1/03/19 08:50 EGPU 010850Z 21008KT 9999 FEW009 09/08 Q1013 SSW (210°) 9.2mph 9°C 8°C
1/03/19 08:20 EGPU 010820Z 22009KT 9999 SCT009 SCT025 09/08 Q1014 SW (220°) 10.4mph 9°C 8°C
1/03/19 07:50 EGPU 010750Z AUTO 19007KT 3000 BR FEW004/// BKN025/// 09/08 Q1014 BR S (190°) 8.1mph 9°C 8°C
1/03/19 07:20 EGPU 010720Z AUTO 18008KT 2000 BR SCT003/// SCT009/// BKN025/// 09/08 Q1014 BR S (180°) 9.2mph 9°C 8°C
1/03/19 06:50 EGPU 010650Z AUTO 18009KT 2300 BR SCT009/// BKN026/// 08/08 Q1014 BR S (180°) 10.4mph 8°C 8°C
1/03/19 06:20 EGPU 010620Z AUTO 18009KT 2400 BR FEW004/// SCT009/// BKN025/// 08/08 Q1014 BR S (180°) 10.4mph 8°C 8°C
1/03/19 05:50 EGPU 010550Z AUTO 17009KT 2700 BR FEW004/// OVC025/// 08/08 Q1014 BR S (170°) 10.4mph 8°C 8°C
1/03/19 05:20 EGPU 010520Z AUTO 16007KT 2800 BR FEW004/// OVC024/// 08/08 Q1014 BR SSE (160°) 8.1mph 8°C 8°C
1/03/19 04:50 EGPU 010450Z AUTO 14008KT 3900 HZ OVC024/// 08/07 Q1014 HZ SE (140°) 9.2mph 8°C 7°C